createdAt,value
2022-10-03T00:02:06.903Z,15.20
2022-10-03T00:04:54.808Z,23.10
2022-10-03T00:07:39.591Z,21.27
2022-10-03T00:10:19.035Z,23.67
2022-10-03T00:13:01.857Z,32.03
2022-10-03T00:15:38.960Z,24.30
2022-10-03T00:18:19.231Z,22.00
2022-10-03T00:21:04.271Z,26.17
2022-10-03T00:23:44.333Z,25.43
2022-10-03T00:26:30.882Z,21.30
2022-10-03T00:29:31.841Z,19.73
2022-10-03T00:32:14.063Z,25.60
2022-10-03T00:34:58.973Z,26.10
2022-10-03T00:37:35.781Z,27.30
2022-10-03T00:40:31.542Z,20.27
2022-10-03T00:43:22.130Z,17.10
2022-10-03T00:46:23.451Z,21.40
2022-10-03T00:49:36.996Z,23.03
2022-10-03T00:52:20.578Z,14.67
2022-10-03T00:55:03.995Z,17.40
2022-10-03T00:58:08.161Z,16.97
2022-10-03T01:00:37.427Z,16.90
2022-10-03T01:03:37.653Z,11.93
2022-10-03T01:06:20.135Z,18.27
2022-10-03T01:09:21.153Z,12.27
2022-10-03T01:12:01.832Z,11.47
2022-10-03T01:14:57.469Z,15.33
2022-10-03T01:17:39.161Z,14.83
2022-10-03T01:20:27.443Z,15.97
2022-10-03T01:23:35.154Z,14.20
2022-10-03T01:26:16.340Z,19.73
2022-10-03T01:29:10.055Z,13.33
2022-10-03T01:31:45.764Z,14.80
2022-10-03T01:34:23.562Z,19.70
2022-10-03T01:37:06.601Z,16.73
2022-10-03T01:39:48.174Z,17.00
2022-10-03T01:42:22.100Z,16.57
2022-10-03T01:45:13.358Z,14.20
2022-10-03T01:47:51.698Z,13.33
2022-10-03T01:50:30.436Z,15.10
2022-10-03T01:53:06.928Z,18.97
2022-10-03T01:55:45.503Z,15.83
2022-10-03T01:58:20.996Z,15.23
2022-10-03T02:00:58.514Z,13.30
2022-10-03T02:03:34.197Z,13.83
2022-10-03T02:06:10.795Z,13.23
2022-10-03T02:08:51.228Z,12.10
2022-10-03T02:11:35.130Z,11.43
2022-10-03T02:14:17.865Z,20.17
2022-10-03T02:16:59.273Z,15.33
2022-10-03T02:19:31.109Z,14.17
2022-10-03T02:22:03.114Z,16.83
2022-10-03T02:24:42.815Z,16.23
2022-10-03T02:27:41.641Z,14.10
2022-10-03T02:30:15.849Z,16.23
2022-10-03T02:33:17.281Z,15.60
2022-10-03T02:36:17.021Z,15.43
2022-10-03T02:39:19.029Z,14.90
2022-10-03T02:42:20.068Z,13.70
2022-10-03T02:45:30.507Z,17.17
2022-10-03T02:48:37.667Z,14.40
2022-10-03T02:51:49.098Z,15.63
2022-10-03T02:54:56.426Z,13.20
2022-10-03T02:57:57.461Z,16.23
2022-10-03T03:00:41.025Z,18.33
2022-10-03T03:03:43.229Z,14.30
2022-10-03T03:06:45.174Z,14.80
2022-10-03T03:09:54.576Z,15.63
2022-10-03T03:13:04.526Z,13.40
2022-10-03T03:16:05.631Z,15.90
2022-10-03T03:18:38.895Z,16.07
2022-10-03T03:21:19.958Z,14.10
2022-10-03T03:24:27.138Z,13.90
2022-10-03T03:27:18.899Z,17.00
2022-10-03T03:29:57.824Z,13.97
2022-10-03T03:32:39.123Z,11.20
2022-10-03T03:35:16.139Z,16.60
2022-10-03T03:37:54.184Z,13.87
2022-10-03T03:40:35.066Z,15.13
2022-10-03T03:43:23.645Z,14.03
2022-10-03T03:46:07.187Z,16.90
2022-10-03T03:49:02.304Z,12.20
2022-10-03T03:51:41.430Z,12.60
2022-10-03T03:54:46.469Z,11.50
2022-10-03T03:57:41.629Z,16.40
2022-10-03T04:00:17.522Z,12.67
2022-10-03T04:03:06.257Z,11.37
2022-10-03T04:05:52.803Z,11.40
2022-10-03T04:08:38.860Z,17.30
2022-10-03T04:11:22.232Z,14.07
2022-10-03T04:14:24.810Z,14.87
2022-10-03T04:17:49.933Z,14.70
2022-10-03T04:20:36.198Z,14.23
2022-10-03T04:23:16.893Z,13.30
2022-10-03T04:25:56.284Z,11.13
2022-10-03T04:28:40.106Z,11.80
2022-10-03T04:31:39.515Z,13.70
2022-10-03T04:34:23.926Z,11.17
2022-10-03T04:37:06.865Z,17.53
2022-10-03T04:39:43.778Z,14.07
2022-10-03T04:42:24.210Z,12.23
2022-10-03T04:45:06.484Z,10.80
2022-10-03T04:47:40.919Z,11.57
2022-10-03T04:50:38.484Z,12.93
2022-10-03T04:53:20.901Z,13.80
2022-10-03T04:55:55.493Z,13.67
2022-10-03T04:58:34.858Z,10.83
2022-10-03T05:01:15.305Z,14.37
2022-10-03T05:03:59.953Z,8.53
2022-10-03T05:06:39.255Z,16.67
2022-10-03T05:09:24.474Z,13.20
2022-10-03T05:12:04.020Z,13.57
2022-10-03T05:15:00.498Z,11.37
2022-10-03T05:17:40.451Z,14.20
2022-10-03T05:20:33.715Z,13.80
2022-10-03T05:23:16.594Z,12.30
2022-10-03T05:25:55.177Z,15.43
2022-10-03T05:28:36.031Z,14.37
2022-10-03T05:31:17.582Z,15.07
2022-10-03T05:33:51.870Z,15.20
2022-10-03T05:36:35.016Z,13.50
2022-10-03T05:39:27.425Z,16.23
2022-10-03T05:42:22.053Z,10.53
2022-10-03T05:45:03.311Z,10.20
2022-10-03T05:47:49.493Z,12.27
2022-10-03T05:50:50.893Z,13.23
2022-10-03T05:53:51.592Z,12.20
2022-10-03T05:56:40.167Z,9.93
2022-10-03T05:59:30.830Z,15.27
2022-10-03T06:02:24.261Z,10.93
2022-10-03T06:05:16.556Z,10.90
2022-10-03T06:08:03.760Z,8.97
2022-10-03T06:10:55.334Z,9.20
2022-10-03T06:13:43.619Z,9.67
2022-10-03T06:16:30.407Z,14.43
2022-10-03T06:19:18.143Z,10.23
2022-10-03T06:22:25.910Z,12.87
2022-10-03T06:25:36.510Z,14.03
2022-10-03T06:28:44.549Z,14.03
2022-10-03T06:31:53.459Z,13.53
2022-10-03T06:35:01.737Z,12.63
2022-10-03T06:37:57.542Z,13.37
2022-10-03T06:41:08.228Z,13.90
2022-10-03T06:43:49.351Z,11.47
2022-10-03T06:46:53.595Z,11.30
2022-10-03T06:49:49.112Z,10.77
2022-10-03T06:52:41.924Z,8.90
2022-10-03T06:55:51.628Z,10.90
2022-10-03T06:58:46.834Z,13.87
2022-10-03T07:01:50.973Z,14.30
2022-10-03T07:04:38.912Z,13.13
2022-10-03T07:07:40.702Z,19.33
2022-10-03T07:10:30.142Z,16.47
2022-10-03T07:13:38.032Z,9.80
2022-10-03T07:16:32.562Z,12.27
2022-10-03T07:19:35.741Z,17.73
2022-10-03T07:22:39.126Z,18.83
2022-10-03T07:25:43.888Z,14.70
2022-10-03T07:28:40.815Z,11.23
2022-10-03T07:31:22.826Z,11.43
2022-10-03T07:34:40.747Z,13.30
2022-10-03T07:37:49.960Z,14.60
2022-10-03T07:40:57.363Z,17.47
2022-10-03T07:43:49.947Z,13.57
2022-10-03T07:46:52.621Z,15.57
2022-10-03T07:49:40.668Z,12.53
2022-10-03T07:52:50.501Z,20.50
2022-10-03T07:55:37.452Z,14.87
2022-10-03T07:58:27.353Z,18.30
2022-10-03T08:01:15.466Z,16.87
2022-10-03T08:04:22.673Z,12.80
2022-10-03T08:07:05.918Z,12.00
2022-10-03T08:09:56.358Z,13.87
2022-10-03T08:12:45.964Z,12.60
2022-10-03T08:15:28.243Z,13.97
2022-10-03T08:18:32.851Z,12.87
2022-10-03T08:21:02.979Z,14.40
2022-10-03T08:24:03.344Z,14.87
2022-10-03T08:26:55.396Z,12.03
2022-10-03T08:29:42.293Z,12.17
2022-10-03T08:32:48.436Z,14.57
2022-10-03T08:35:35.779Z,14.03
2022-10-03T08:38:37.827Z,14.63
2022-10-03T08:41:54.590Z,17.00
2022-10-03T08:44:53.736Z,16.67
2022-10-03T08:47:49.819Z,14.37
2022-10-03T08:50:50.599Z,15.77
2022-10-03T08:53:54.179Z,15.53
2022-10-03T08:56:36.001Z,15.27
2022-10-03T08:59:47.149Z,13.50
2022-10-03T09:03:20.123Z,14.03
2022-10-03T09:06:14.196Z,13.37
2022-10-03T09:08:57.679Z,13.67
2022-10-03T09:11:45.671Z,12.33
2022-10-03T09:14:53.888Z,11.57
2022-10-03T09:17:58.343Z,11.93
2022-10-03T09:21:21.847Z,16.93
2022-10-03T09:24:21.397Z,16.27
2022-10-03T09:27:27.513Z,16.20
2022-10-03T09:30:18.346Z,12.50
2022-10-03T09:33:39.640Z,13.77
2022-10-03T09:36:42.881Z,16.30
2022-10-03T09:40:02.337Z,13.83
2022-10-03T09:43:04.966Z,12.23
2022-10-03T09:46:02.492Z,14.70
2022-10-03T09:48:50.395Z,14.87
2022-10-03T09:51:51.795Z,14.30
2022-10-03T09:55:16.170Z,15.07
2022-10-03T09:58:05.404Z,14.27
2022-10-03T10:00:55.417Z,11.60
2022-10-03T10:04:13.001Z,9.83
2022-10-03T10:07:25.375Z,12.03
2022-10-03T10:10:36.423Z,11.60
2022-10-03T10:14:06.601Z,7.87
2022-10-03T10:17:02.420Z,10.87
2022-10-03T10:19:54.755Z,8.87
2022-10-03T10:23:12.520Z,11.13
2022-10-03T10:26:10.651Z,10.37
2022-10-03T10:29:11.768Z,8.57
2022-10-03T10:32:25.155Z,7.97
2022-10-03T10:35:31.549Z,6.70
2022-10-03T10:38:26.863Z,6.97
2022-10-03T10:41:43.374Z,8.20
2022-10-03T10:44:54.504Z,8.93
2022-10-03T10:47:56.638Z,7.90
2022-10-03T10:51:05.874Z,10.63
2022-10-03T10:54:11.479Z,8.60
2022-10-03T10:57:14.444Z,6.70
2022-10-03T11:00:27.605Z,6.03
2022-10-03T11:04:03.298Z,5.20
2022-10-03T11:07:09.137Z,12.23
2022-10-03T11:10:20.534Z,5.70
2022-10-03T11:13:35.588Z,7.00
2022-10-03T11:16:41.343Z,6.77
2022-10-03T11:19:42.780Z,8.10
2022-10-03T11:22:43.813Z,3.77
2022-10-03T11:25:55.591Z,9.57
2022-10-03T11:29:02.923Z,9.27
2022-10-03T11:32:19.989Z,5.27
2022-10-03T11:35:28.040Z,4.53
2022-10-03T11:38:01.883Z,4.80
2022-10-03T11:40:57.279Z,5.77
2022-10-03T11:43:53.262Z,4.87
2022-10-03T11:46:34.382Z,5.00
2022-10-03T11:49:15.845Z,5.93
2022-10-03T11:51:54.125Z,4.57
2022-10-03T11:54:31.531Z,4.63
2022-10-03T11:57:10.174Z,5.10
2022-10-03T12:00:00.499Z,5.20
2022-10-03T12:02:53.244Z,6.40
2022-10-03T12:05:30.168Z,4.80
2022-10-03T12:08:35.966Z,8.97
2022-10-03T12:11:11.600Z,4.77
2022-10-03T12:13:47.986Z,6.13
2022-10-03T12:16:26.035Z,7.13
2022-10-03T12:19:00.585Z,7.33
2022-10-03T12:21:43.124Z,9.57
2022-10-03T12:24:26.923Z,5.93
2022-10-03T12:27:09.245Z,3.40
2022-10-03T12:29:46.373Z,3.93
2022-10-03T12:32:28.067Z,4.00
2022-10-03T12:35:14.964Z,5.77
2022-10-03T12:37:53.537Z,5.07
2022-10-03T12:40:31.946Z,6.20
2022-10-03T12:43:11.301Z,4.57
2022-10-03T12:45:46.130Z,4.97
2022-10-03T12:48:34.347Z,5.87
2022-10-03T12:51:10.163Z,4.90
2022-10-03T12:53:52.950Z,4.07
2022-10-03T12:56:30.202Z,4.17
2022-10-03T12:59:19.327Z,6.87
2022-10-03T13:02:14.128Z,3.03
2022-10-03T13:04:48.173Z,5.30
2022-10-03T13:07:28.723Z,7.40
2022-10-03T13:10:29.582Z,4.83
2022-10-03T13:13:13.708Z,3.83
2022-10-03T13:15:57.058Z,6.83
2022-10-03T13:18:47.611Z,3.00
2022-10-03T13:21:44.588Z,7.47
2022-10-03T13:24:22.859Z,3.73
2022-10-03T13:27:07.083Z,7.27
2022-10-03T13:29:46.091Z,6.33
2022-10-03T13:32:22.486Z,4.47
2022-10-03T13:35:29.734Z,5.87
2022-10-03T13:38:27.535Z,5.67
2022-10-03T13:41:08.063Z,5.30
2022-10-03T13:43:41.487Z,5.17
2022-10-03T13:46:17.593Z,5.37
2022-10-03T13:49:03.483Z,5.13
2022-10-03T13:51:47.731Z,4.50
2022-10-03T13:54:24.170Z,4.77
2022-10-03T13:56:59.651Z,7.00
2022-10-03T13:59:54.578Z,5.43
2022-10-03T14:02:47.066Z,6.07
2022-10-03T14:05:48.744Z,4.10
2022-10-03T14:08:34.213Z,8.53
2022-10-03T14:11:32.230Z,4.97
2022-10-03T14:14:16.563Z,3.50
2022-10-03T14:16:52.205Z,3.57
2022-10-03T14:19:37.160Z,5.27
2022-10-03T14:22:27.279Z,5.73
2022-10-03T14:25:19.330Z,5.37
2022-10-03T14:28:00.155Z,7.67
2022-10-03T14:30:38.033Z,3.97
2022-10-03T14:33:20.787Z,5.77
2022-10-03T14:36:03.768Z,3.07
2022-10-03T14:39:05.586Z,3.03
2022-10-03T14:41:48.619Z,6.27
2022-10-03T14:44:21.550Z,4.23
2022-10-03T14:46:58.600Z,3.77
2022-10-03T14:49:53.506Z,6.40
2022-10-03T14:52:35.173Z,5.40
2022-10-03T14:55:14.919Z,7.27
2022-10-03T14:58:09.300Z,4.50
2022-10-03T15:00:45.477Z,5.80
2022-10-03T15:03:34.247Z,4.07
2022-10-03T15:06:21.276Z,7.47
2022-10-03T15:08:55.506Z,4.57
2022-10-03T15:11:30.346Z,6.43
2022-10-03T15:14:02.975Z,4.37
2022-10-03T15:16:36.045Z,4.07
2022-10-03T15:19:11.612Z,8.03
2022-10-03T15:21:46.057Z,3.77
2022-10-03T15:24:25.299Z,4.47
2022-10-03T15:27:01.630Z,5.43
2022-10-03T15:29:35.565Z,7.13
2022-10-03T15:32:07.192Z,6.53
2022-10-03T15:34:42.456Z,5.47
2022-10-03T15:37:18.941Z,5.33
2022-10-03T15:39:53.233Z,3.30
2022-10-03T15:42:25.670Z,8.10
2022-10-03T15:44:58.259Z,4.63
2022-10-03T15:47:30.194Z,4.47
2022-10-03T15:50:03.478Z,8.20
2022-10-03T15:52:41.173Z,5.70
2022-10-03T15:55:21.057Z,2.53
2022-10-03T15:57:52.519Z,6.50
2022-10-03T16:00:24.900Z,4.73
2022-10-03T16:03:02.531Z,5.70
2022-10-03T16:05:31.428Z,4.00
2022-10-03T16:08:06.318Z,4.33
2022-10-03T16:10:41.421Z,2.83
2022-10-03T16:13:27.147Z,4.17
2022-10-03T16:16:16.971Z,5.77
2022-10-03T16:19:01.737Z,4.00
2022-10-03T16:21:52.659Z,6.27
2022-10-03T16:24:35.217Z,5.17
2022-10-03T16:27:17.911Z,2.73
2022-10-03T16:29:54.910Z,5.47
2022-10-03T16:32:26.872Z,6.07
2022-10-03T16:35:02.833Z,4.23
2022-10-03T16:37:33.436Z,8.43
2022-10-03T16:40:06.926Z,4.40
2022-10-03T16:42:44.180Z,4.43
2022-10-03T16:45:26.542Z,3.47
2022-10-03T16:48:16.796Z,5.20
2022-10-03T16:50:52.109Z,2.90
2022-10-03T16:53:23.572Z,4.13
2022-10-03T16:55:59.843Z,3.60
2022-10-03T16:58:40.222Z,3.80
2022-10-03T17:01:29.292Z,2.30
2022-10-03T17:04:10.210Z,3.47
2022-10-03T17:06:41.173Z,2.37
2022-10-03T17:09:21.528Z,2.30
2022-10-03T17:11:56.072Z,4.07
2022-10-03T17:14:28.913Z,5.93
2022-10-03T17:17:04.936Z,4.30
2022-10-03T17:19:38.068Z,4.80
2022-10-03T17:22:15.679Z,6.90
2022-10-03T17:24:49.929Z,4.33
2022-10-03T17:27:25.911Z,6.43
2022-10-03T17:30:01.285Z,4.93
2022-10-03T17:32:35.856Z,7.10
2022-10-03T17:35:14.227Z,6.53
2022-10-03T17:38:30.318Z,4.43
2022-10-03T17:41:19.359Z,4.30
2022-10-03T17:43:59.739Z,7.40
2022-10-03T17:46:43.074Z,7.60
2022-10-03T17:49:40.826Z,6.03
2022-10-03T17:52:17.383Z,6.03
2022-10-03T17:54:48.697Z,14.53
2022-10-03T17:57:24.088Z,9.13
2022-10-03T17:59:59.648Z,6.23
2022-10-03T18:02:38.536Z,5.47
2022-10-03T18:05:17.241Z,4.73
2022-10-03T18:07:47.592Z,6.97
2022-10-03T18:10:25.880Z,8.00
2022-10-03T18:12:58.011Z,10.57
2022-10-03T18:15:59.543Z,7.43
2022-10-03T18:19:12.887Z,8.67
2022-10-03T18:22:02.747Z,7.67
2022-10-03T18:24:52.826Z,5.90
2022-10-03T18:27:56.425Z,6.37
2022-10-03T18:30:54.267Z,9.30
2022-10-03T18:33:33.047Z,10.47
2022-10-03T18:36:12.995Z,8.93
2022-10-03T18:38:44.763Z,12.63
2022-10-03T18:41:19.654Z,8.57
2022-10-03T18:43:58.911Z,7.10
2022-10-03T18:46:31.912Z,7.20
2022-10-03T18:52:07.285Z,6.50
2022-10-03T18:54:46.353Z,8.90
2022-10-03T18:57:24.604Z,9.57
2022-10-03T18:59:58.661Z,6.67
2022-10-03T19:02:34.141Z,14.80
2022-10-03T19:05:10.975Z,10.27
2022-10-03T19:07:56.218Z,12.00
2022-10-03T19:10:41.125Z,10.43
2022-10-03T19:13:25.283Z,10.53
2022-10-03T19:16:21.948Z,10.57
2022-10-03T19:19:04.458Z,9.63
2022-10-03T19:21:42.214Z,11.10
2022-10-03T19:24:17.853Z,10.03
2022-10-03T19:26:52.750Z,11.30
2022-10-03T19:29:25.039Z,10.37
2022-10-03T19:32:05.790Z,7.93
2022-10-03T19:34:38.841Z,13.10
2022-10-03T19:37:13.086Z,9.57
2022-10-03T19:39:45.068Z,6.23
2022-10-03T19:42:28.274Z,7.87
2022-10-03T19:44:59.511Z,7.73
2022-10-03T19:47:33.245Z,8.80
2022-10-03T19:50:09.468Z,15.17
2022-10-03T19:52:41.972Z,14.17
2022-10-03T19:55:19.563Z,14.03
2022-10-03T19:57:52.809Z,14.47
2022-10-03T20:00:33.750Z,14.80
2022-10-03T20:03:16.027Z,14.80
2022-10-03T20:05:52.568Z,16.73
2022-10-03T20:08:26.316Z,9.97
2022-10-03T20:11:24.265Z,14.60
2022-10-03T20:13:55.105Z,14.50
2022-10-03T20:16:26.420Z,13.03
2022-10-03T20:18:58.247Z,9.13
2022-10-03T20:21:30.520Z,10.47
2022-10-03T20:24:00.179Z,11.83
2022-10-03T20:26:40.821Z,10.20
2022-10-03T20:29:24.837Z,11.63
2022-10-03T20:32:01.557Z,9.97
2022-10-03T20:34:31.326Z,9.03
2022-10-03T20:37:19.750Z,11.20
2022-10-03T20:39:53.159Z,12.53
2022-10-03T20:42:29.357Z,10.17
2022-10-03T20:45:04.964Z,12.17
2022-10-03T20:47:52.923Z,9.83
2022-10-03T20:50:26.621Z,10.10
2022-10-03T20:52:59.219Z,12.50
2022-10-03T20:55:31.682Z,8.67
2022-10-03T20:58:17.555Z,12.07
2022-10-03T21:00:49.554Z,8.13
2022-10-03T21:03:30.026Z,6.33
2022-10-03T21:06:00.257Z,8.70
2022-10-03T21:08:34.764Z,7.30
2022-10-03T21:11:05.428Z,11.20
2022-10-03T21:13:40.313Z,9.07
2022-10-03T21:16:22.047Z,8.63
2022-10-03T21:18:53.373Z,6.07
2022-10-03T21:21:34.157Z,10.23
2022-10-03T21:24:08.782Z,8.23
2022-10-03T21:26:44.128Z,12.47
2022-10-03T21:29:32.221Z,10.73
2022-10-03T21:32:23.601Z,9.97
2022-10-03T21:35:03.516Z,11.33
2022-10-03T21:37:38.763Z,10.57
2022-10-03T21:40:25.714Z,7.03
2022-10-03T21:43:02.916Z,8.67
2022-10-03T21:45:44.479Z,7.13
2022-10-03T21:48:22.073Z,13.20
2022-10-03T21:50:58.549Z,8.70
2022-10-03T21:53:36.435Z,9.90
2022-10-03T21:56:33.112Z,8.10
2022-10-03T21:59:22.934Z,8.90
2022-10-03T22:02:01.983Z,9.03
2022-10-03T22:04:38.908Z,4.63
2022-10-03T22:07:13.049Z,10.87
2022-10-03T22:09:47.979Z,9.67
2022-10-03T22:12:18.697Z,9.03
2022-10-03T22:14:55.966Z,7.20
2022-10-03T22:17:35.719Z,8.00
2022-10-03T22:20:19.974Z,8.80
2022-10-03T22:22:59.735Z,5.90
2022-10-03T22:25:40.607Z,9.43
2022-10-03T22:28:20.144Z,7.50
2022-10-03T22:30:58.076Z,7.30
2022-10-03T22:33:38.630Z,9.07
2022-10-03T22:36:12.891Z,9.50
2022-10-03T22:38:43.279Z,11.00
2022-10-03T22:41:16.463Z,8.50
2022-10-03T22:43:45.962Z,8.67
2022-10-03T22:46:21.693Z,9.60
2022-10-03T22:48:57.343Z,10.30
2022-10-03T22:51:28.587Z,12.20
2022-10-03T22:54:04.384Z,10.53
2022-10-03T22:56:40.977Z,13.93
2022-10-03T22:59:13.166Z,13.67
2022-10-03T23:01:48.753Z,16.03
2022-10-03T23:04:30.573Z,15.80
2022-10-03T23:07:35.370Z,13.47
2022-10-03T23:10:18.475Z,14.37
2022-10-03T23:12:52.821Z,13.10
2022-10-03T23:15:23.551Z,10.87
2022-10-03T23:18:22.009Z,11.53
2022-10-03T23:21:07.494Z,16.37
2022-10-03T23:23:54.522Z,10.90
2022-10-03T23:26:59.429Z,13.87
2022-10-03T23:29:28.052Z,15.87
2022-10-03T23:32:01.942Z,12.93
2022-10-03T23:35:09.227Z,8.70
2022-10-03T23:37:47.532Z,12.97
2022-10-03T23:40:41.405Z,8.70
2022-10-03T23:43:31.722Z,11.23
2022-10-03T23:46:02.778Z,8.63
2022-10-03T23:48:33.770Z,12.20
2022-10-03T23:51:06.072Z,16.40
2022-10-03T23:53:39.333Z,14.47
2022-10-03T23:56:28.279Z,8.87
2022-10-03T23:58:59.088Z,8.43
